CR04 weather

Cremona-Migliaro Airport
Cremona, Lombardy, Italy

Public forecast

Using degrees Celsius for public forecast. Weather courtesy of forecast.io.

Closest aviation weather report (METAR) to Cremona-Migliaro Airport

Closest report is Piacenza San Damiano Air Base, 19.3 nm (35.8 km) SW. Retrieved 2020/05/30 10:55 UTC (42 minutes ago):

LIMS 301055Z 15004KT 080V180 9999 FEW050 22/10 Q1016

Closest aviation forecast (TAF) to Cremona-Migliaro Airport

Forecast is more than 12 hours old.

Closest forecast is Piacenza San Damiano Air Base, 19.3 nm (35.8 km) SW. Retrieved 2015/10/16 09:21 UTC (5 years ago):

TAF TAF LIMS 160800Z 1609/1621 VRB05KT 9999 SCT030 BECMG 1613/1615 35007KT SCT030 BKN060